Greenway, New York
Current Conditions -  °F | °C
As of 9:22 PM on Thursday 18 Dec 2014 (Local Time) from KRME Reporting Station
Overcast Overcast  
Wind Chill: -6°   Ceiling: 1300
Heat Index: -2°   Visibility: 10mi
Dew Point: -2°   Wind: 9mph
Humidity: 96%   Direction: 280°W
Pressure: 30"   Gusts: NA
Location:  43.2466°N, 75.4624°W
Report Text: KRME 190222Z AUTO 28008KT 10SM SCT009 BKN013 OVC029 M02/M02 A3000 RMK AO2 T10171022
Loading
Personal Weather Stations






























Interactive Weather Map New forecast layout! Learn more

10-Day Weather Forecast

Advertisements
Track Severe Weather on mobile